sensor_id;sensor_type;location;lat;lon;timestamp;pressure;altitude;pressure_sealevel;temperature;humidity
52855;BME280;38719;51.418;7.286;2023-02-11T00:01:29;101590.78;;;7.15;71.03
52855;BME280;38719;51.418;7.286;2023-02-11T00:03:59;101590.91;;;6.93;71.07
52855;BME280;38719;51.418;7.286;2023-02-11T00:06:28;101583.78;;;7.04;71.58
52855;BME280;38719;51.418;7.286;2023-02-11T00:08:56;101588.19;;;7.07;71.28
52855;BME280;38719;51.418;7.286;2023-02-11T00:11:25;101585.50;;;7.13;70.88
52855;BME280;38719;51.418;7.286;2023-02-11T00:13:56;101586.38;;;7.18;70.96
52855;BME280;38719;51.418;7.286;2023-02-11T00:16:24;101576.59;;;7.30;70.30
52855;BME280;38719;51.418;7.286;2023-02-11T00:18:51;101570.41;;;7.31;70.02
52855;BME280;38719;51.418;7.286;2023-02-11T00:21:23;101566.88;;;7.32;70.03
52855;BME280;38719;51.418;7.286;2023-02-11T00:23:52;101555.38;;;7.30;69.88
52855;BME280;38719;51.418;7.286;2023-02-11T00:26:25;101563.38;;;7.22;70.68
52855;BME280;38719;51.418;7.286;2023-02-11T00:28:53;101565.22;;;7.07;71.20
52855;BME280;38719;51.418;7.286;2023-02-11T00:31:22;101564.31;;;7.08;71.59
52855;BME280;38719;51.418;7.286;2023-02-11T00:33:50;101560.78;;;7.09;70.44
52855;BME280;38719;51.418;7.286;2023-02-11T00:36:21;101557.22;;;7.14;70.66
52855;BME280;38719;51.418;7.286;2023-02-11T00:38:50;101551.03;;;7.19;70.14
52855;BME280;38719;51.418;7.286;2023-02-11T00:41:19;101553.63;;;7.30;69.93
52855;BME280;38719;51.418;7.286;2023-02-11T00:43:47;101554.56;;;7.18;70.73
52855;BME280;38719;51.418;7.286;2023-02-11T00:46:15;101562.47;;;7.26;70.23
52855;BME280;38719;51.418;7.286;2023-02-11T00:48:43;101570.47;;;7.14;71.32
52855;BME280;38719;51.418;7.286;2023-02-11T00:51:11;101571.38;;;7.16;70.34
52855;BME280;38719;51.418;7.286;2023-02-11T00:53:40;101576.63;;;7.22;71.16
52855;BME280;38719;51.418;7.286;2023-02-11T00:56:08;101558.94;;;7.30;70.85
52855;BME280;38719;51.418;7.286;2023-02-11T00:58:36;101559.84;;;7.21;70.84
52855;BME280;38719;51.418;7.286;2023-02-11T01:01:03;101558.91;;;7.36;70.76
52855;BME280;38719;51.418;7.286;2023-02-11T01:03:31;101548.34;;;7.25;70.99
52855;BME280;38719;51.418;7.286;2023-02-11T01:05:59;101541.25;;;7.28;71.20
52855;BME280;38719;51.418;7.286;2023-02-11T01:08:26;101549.19;;;7.35;70.05
52855;BME280;38719;51.418;7.286;2023-02-11T01:10:56;101550.16;;;7.13;71.48
52855;BME280;38719;51.418;7.286;2023-02-11T01:13:25;101549.22;;;7.24;70.71
52855;BME280;38719;51.418;7.286;2023-02-11T01:15:53;101554.47;;;7.32;70.99
52855;BME280;38719;51.418;7.286;2023-02-11T01:18:20;101558.94;;;7.22;70.57
52855;BME280;38719;51.418;7.286;2023-02-11T01:20:49;101558.03;;;7.30;71.02
52855;BME280;38719;51.418;7.286;2023-02-11T01:23:17;101559.88;;;7.14;70.83
52855;BME280;38719;51.418;7.286;2023-02-11T01:25:45;101562.47;;;7.29;71.01
52855;BME280;38719;51.418;7.286;2023-02-11T01:28:17;101567.84;;;7.14;71.31
52855;BME280;38719;51.418;7.286;2023-02-11T01:30:45;101566.06;;;7.20;70.39
52855;BME280;38719;51.418;7.286;2023-02-11T01:33:13;101558.91;;;7.36;70.10
52855;BME280;38719;51.418;7.286;2023-02-11T01:35:41;101553.69;;;7.15;70.77
52855;BME280;38719;51.418;7.286;2023-02-11T01:38:14;101552.81;;;7.13;71.45
52855;BME280;38719;51.418;7.286;2023-02-11T01:40:46;101560.69;;;7.25;71.04
52855;BME280;38719;51.418;7.286;2023-02-11T01:43:13;101571.38;;;7.16;71.85
52855;BME280;38719;51.418;7.286;2023-02-11T01:45:55;101581.94;;;7.22;70.72
52855;BME280;38719;51.418;7.286;2023-02-11T01:48:27;101586.34;;;7.20;71.23
52855;BME280;38719;51.418;7.286;2023-02-11T01:51:00;101585.50;;;7.18;71.83
52855;BME280;38719;51.418;7.286;2023-02-11T01:53:30;101582.78;;;7.22;70.74
52855;BME280;38719;51.418;7.286;2023-02-11T01:56:17;101568.66;;;7.28;71.28
52855;BME280;38719;51.418;7.286;2023-02-11T01:59:06;101557.22;;;7.15;71.48
52855;BME280;38719;51.418;7.286;2023-02-11T02:01:39;101553.78;;;6.99;71.91
52855;BME280;38719;51.418;7.286;2023-02-11T02:04:10;101541.34;;;7.17;71.08
52855;BME280;38719;51.418;7.286;2023-02-11T02:06:42;101534.16;;;7.34;71.11
52855;BME280;38719;51.418;7.286;2023-02-11T02:09:16;101538.69;;;7.12;71.43
52855;BME280;38719;51.418;7.286;2023-02-11T02:11:46;101546.59;;;7.20;72.01
52855;BME280;38719;51.418;7.286;2023-02-11T02:14:14;101528.94;;;7.19;71.59
52855;BME280;38719;51.418;7.286;2023-02-11T02:16:43;101542.16;;;7.28;72.16
52855;BME280;38719;51.418;7.286;2023-02-11T02:19:29;101543.00;;;7.36;71.69
52855;BME280;38719;51.418;7.286;2023-02-11T02:22:27;101541.25;;;7.29;71.26
52855;BME280;38719;51.418;7.286;2023-02-11T02:25:19;101527.97;;;7.34;71.41
52855;BME280;38719;51.418;7.286;2023-02-11T02:28:03;101515.66;;;7.28;72.34
52855;BME280;38719;51.418;7.286;2023-02-11T02:30:48;101497.16;;;7.19;72.07
52855;BME280;38719;51.418;7.286;2023-02-11T02:33:28;101500.75;;;7.12;71.94
52855;BME280;38719;51.418;7.286;2023-02-11T02:36:04;101495.44;;;7.08;72.77
52855;BME280;38719;51.418;7.286;2023-02-11T02:38:39;101497.19;;;7.16;72.34
52855;BME280;38719;51.418;7.286;2023-02-11T02:41:10;101494.47;;;7.23;72.33
52855;BME280;38719;51.418;7.286;2023-02-11T02:43:42;101492.81;;;7.07;72.46
52855;BME280;38719;51.418;7.286;2023-02-11T02:46:14;101488.53;;;6.86;73.84
52855;BME280;38719;51.418;7.286;2023-02-11T02:48:44;101489.44;;;6.75;73.88
52855;BME280;38719;51.418;7.286;2023-02-11T02:51:41;101514.19;;;6.65;74.48
52855;BME280;38719;51.418;7.286;2023-02-11T02:54:36;101518.59;;;6.69;75.02
52855;BME280;38719;51.418;7.286;2023-02-11T02:57:18;101508.88;;;6.73;73.85
52855;BME280;38719;51.418;7.286;2023-02-11T03:00:03;101499.13;;;6.86;74.11
52855;BME280;38719;51.418;7.286;2023-02-11T03:02:35;101499.94;;;6.92;73.04
52855;BME280;38719;51.418;7.286;2023-02-11T03:05:11;101492.84;;;7.05;73.49
52855;BME280;38719;51.418;7.286;2023-02-11T03:07:47;101500.81;;;6.99;73.94
52855;BME280;38719;51.418;7.286;2023-02-11T03:10:20;101500.03;;;6.78;73.87
52855;BME280;38719;51.418;7.286;2023-02-11T03:12:50;101503.53;;;6.87;73.91
52855;BME280;38719;51.418;7.286;2023-02-11T03:15:22;101494.63;;;6.99;73.43
52855;BME280;38719;51.418;7.286;2023-02-11T03:17:52;101494.53;;;7.13;72.43
52855;BME280;38719;51.418;7.286;2023-02-11T03:20:22;101498.13;;;7.04;73.72
52855;BME280;38719;51.418;7.286;2023-02-11T03:22:54;101498.13;;;7.04;72.79
52855;BME280;38719;51.418;7.286;2023-02-11T03:25:28;101495.44;;;7.13;73.12
52855;BME280;38719;51.418;7.286;2023-02-11T03:28:01;101503.44;;;7.01;73.39
52855;BME280;38719;51.418;7.286;2023-02-11T03:30:32;101505.19;;;7.05;73.25
52855;BME280;38719;51.418;7.286;2023-02-11T03:33:06;101507.88;;;6.97;73.44
52855;BME280;38719;51.418;7.286;2023-02-11T03:35:40;101512.25;;;7.01;73.33
52855;BME280;38719;51.418;7.286;2023-02-11T03:38:12;101509.72;;;6.86;73.63
52855;BME280;38719;51.418;7.286;2023-02-11T03:40:43;101499.03;;;7.01;73.16
52855;BME280;38719;51.418;7.286;2023-02-11T03:43:14;101495.50;;;7.02;72.94
52855;BME280;38719;51.418;7.286;2023-02-11T03:45:44;101491.06;;;7.03;72.58
52855;BME280;38719;51.418;7.286;2023-02-11T03:48:16;101490.22;;;7.01;73.15
52855;BME280;38719;51.418;7.286;2023-02-11T03:50:49;101487.69;;;6.74;73.56
52855;BME280;38719;51.418;7.286;2023-02-11T03:53:19;101487.59;;;6.91;74.20
52855;BME280;38719;51.418;7.286;2023-02-11T03:55:49;101489.25;;;7.11;73.32
52855;BME280;38719;51.418;7.286;2023-02-11T03:58:18;101489.28;;;7.09;72.34
52855;BME280;38719;51.418;7.286;2023-02-11T04:00:45;101490.16;;;7.12;72.84
52855;BME280;38719;51.418;7.286;2023-02-11T04:03:13;101490.06;;;7.21;72.64
52855;BME280;38719;51.418;7.286;2023-02-11T04:05:40;101490.13;;;7.18;73.47
52855;BME280;38719;51.418;7.286;2023-02-11T04:08:09;101490.06;;;7.21;72.80
52855;BME280;38719;51.418;7.286;2023-02-11T04:10:37;101495.34;;;7.22;73.49
52855;BME280;38719;51.418;7.286;2023-02-11T04:13:04;101494.41;;;7.34;72.80
52855;BME280;38719;51.418;7.286;2023-02-11T04:15:32;101498.81;;;7.32;72.93
52855;BME280;38719;51.418;7.286;2023-02-11T04:17:59;101502.44;;;7.19;73.79
52855;BME280;38719;51.418;7.286;2023-02-11T04:20:28;101501.50;;;7.28;74.01
52855;BME280;38719;51.418;7.286;2023-02-11T04:22:56;101500.59;;;7.33;73.08
52855;BME280;38719;51.418;7.286;2023-02-11T04:25:24;101485.59;;;7.31;73.78
52855;BME280;38719;51.418;7.286;2023-02-11T04:27:52;101501.56;;;7.20;74.33
52855;BME280;38719;51.418;7.286;2023-02-11T04:30:20;101490.28;;;6.88;75.08
52855;BME280;38719;51.418;7.286;2023-02-11T04:32:47;101497.28;;;7.02;75.06
52855;BME280;38719;51.418;7.286;2023-02-11T04:35:15;101488.31;;;7.20;74.41
52855;BME280;38719;51.418;7.286;2023-02-11T04:37:42;101486.59;;;7.13;74.86
52855;BME280;38719;51.418;7.286;2023-02-11T04:40:10;101496.31;;;7.09;75.40
52855;BME280;38719;51.418;7.286;2023-02-11T04:42:39;101506.00;;;7.18;74.83
52855;BME280;38719;51.418;7.286;2023-02-11T04:45:07;101516.56;;;7.22;74.66
52855;BME280;38719;51.418;7.286;2023-02-11T04:47:35;101524.53;;;7.19;74.52
52855;BME280;38719;51.418;7.286;2023-02-11T04:50:03;101527.19;;;7.16;74.82
52855;BME280;38719;51.418;7.286;2023-02-11T04:52:31;101512.16;;;7.20;74.73
52855;BME280;38719;51.418;7.286;2023-02-11T04:54:58;101502.47;;;7.13;74.72
52855;BME280;38719;51.418;7.286;2023-02-11T04:57:26;101507.88;;;6.99;75.80
52855;BME280;38719;51.418;7.286;2023-02-11T04:59:55;101502.59;;;6.94;75.60
52855;BME280;38719;51.418;7.286;2023-02-11T05:02:22;101496.28;;;7.14;75.29
52855;BME280;38719;51.418;7.286;2023-02-11T05:04:50;101498.09;;;7.12;75.59
52855;BME280;38719;51.418;7.286;2023-02-11T05:07:17;101499.78;;;7.19;74.60
52855;BME280;38719;51.418;7.286;2023-02-11T05:09:45;101499.78;;;7.22;75.12
52855;BME280;38719;51.418;7.286;2023-02-11T05:12:13;101497.97;;;7.30;75.13
52855;BME280;38719;51.418;7.286;2023-02-11T05:14:41;101508.63;;;7.16;75.19
52855;BME280;38719;51.418;7.286;2023-02-11T05:17:10;101503.25;;;7.29;74.76
52855;BME280;38719;51.418;7.286;2023-02-11T05:19:37;101502.47;;;7.20;75.09
52855;BME280;38719;51.418;7.286;2023-02-11T05:22:05;101504.19;;;7.21;75.40
52855;BME280;38719;51.418;7.286;2023-02-11T05:24:32;101500.75;;;7.12;75.80
52855;BME280;38719;51.418;7.286;2023-02-11T05:27:00;101501.56;;;7.23;75.33
52855;BME280;38719;51.418;7.286;2023-02-11T05:29:29;101494.56;;;7.11;75.69
52855;BME280;38719;51.418;7.286;2023-02-11T05:31:57;101492.03;;;6.88;77.10
52855;BME280;38719;51.418;7.286;2023-02-11T05:34:26;101493.84;;;6.78;77.13
52855;BME280;38719;51.418;7.286;2023-02-11T05:36:54;101485.91;;;6.72;77.75
52855;BME280;38719;51.418;7.286;2023-02-11T05:39:21;101493.91;;;6.64;78.22
52855;BME280;38719;51.418;7.286;2023-02-11T05:41:49;101493.88;;;6.69;78.06
52855;BME280;38719;51.418;7.286;2023-02-11T05:44:16;101494.75;;;6.69;78.43
52855;BME280;38719;51.418;7.286;2023-02-11T05:46:44;101485.91;;;6.75;78.14
52855;BME280;38719;51.418;7.286;2023-02-11T05:49:11;101487.66;;;6.81;77.78
52855;BME280;38719;51.418;7.286;2023-02-11T05:51:40;101491.13;;;6.93;77.10
52855;BME280;38719;51.418;7.286;2023-02-11T05:54:08;101487.63;;;6.88;77.85
52855;BME280;38719;51.418;7.286;2023-02-11T05:56:35;101488.53;;;6.78;77.34
52855;BME280;38719;51.418;7.286;2023-02-11T05:59:03;101492.03;;;6.89;77.51
52855;BME280;38719;51.418;7.286;2023-02-11T06:01:30;101484.16;;;6.77;77.52
52855;BME280;38719;51.418;7.286;2023-02-11T06:03:58;101489.38;;;6.89;77.71
52855;BME280;38719;51.418;7.286;2023-02-11T06:06:26;101492.03;;;6.86;78.00
52855;BME280;38719;51.418;7.286;2023-02-11T06:08:54;101486.72;;;6.96;77.19
52855;BME280;38719;51.418;7.286;2023-02-11T06:11:22;101496.44;;;6.89;78.02
52855;BME280;38719;51.418;7.286;2023-02-11T06:13:49;101497.38;;;6.75;78.01
52855;BME280;38719;51.418;7.286;2023-02-11T06:16:17;101496.44;;;6.89;77.53
52855;BME280;38719;51.418;7.286;2023-02-11T06:18:44;101486.69;;;6.94;77.18
52855;BME280;38719;51.418;7.286;2023-02-11T06:21:12;101491.19;;;6.76;78.22
52855;BME280;38719;51.418;7.286;2023-02-11T06:23:39;101490.19;;;7.02;77.63
52855;BME280;38719;51.418;7.286;2023-02-11T06:26:16;101488.44;;;7.01;77.30
52855;BME280;38719;51.418;7.286;2023-02-11T06:28:43;101498.22;;;6.88;77.48
52855;BME280;38719;51.418;7.286;2023-02-11T06:31:11;101497.31;;;6.96;76.53
52855;BME280;38719;51.418;7.286;2023-02-11T06:33:39;101493.75;;;6.95;77.90
52855;BME280;38719;51.418;7.286;2023-02-11T06:36:12;101485.81;;;6.95;76.95
52855;BME280;38719;51.418;7.286;2023-02-11T06:38:40;101486.59;;;7.16;76.62
52855;BME280;38719;51.418;7.286;2023-02-11T06:41:10;101489.13;;;7.33;76.36
52855;BME280;38719;51.418;7.286;2023-02-11T06:43:38;101488.31;;;7.20;76.35
52855;BME280;38719;51.418;7.286;2023-02-11T06:46:07;101492.72;;;7.24;76.59
52855;BME280;38719;51.418;7.286;2023-02-11T06:48:35;101500.69;;;7.21;76.08
52855;BME280;38719;51.418;7.286;2023-02-11T06:51:07;101495.34;;;7.25;75.67
52855;BME280;38719;51.418;7.286;2023-02-11T06:53:36;101502.41;;;7.28;76.51
52855;BME280;38719;51.418;7.286;2023-02-11T06:56:05;101504.25;;;7.14;77.13
52855;BME280;38719;51.418;7.286;2023-02-11T06:58:35;101500.63;;;7.30;76.05
52855;BME280;38719;51.418;7.286;2023-02-11T07:01:03;101509.44;;;7.35;75.94
52855;BME280;38719;51.418;7.286;2023-02-11T07:03:32;101508.56;;;7.29;75.97
52855;BME280;38719;51.418;7.286;2023-02-11T07:06:01;101509.53;;;7.14;76.08
52855;BME280;38719;51.418;7.286;2023-02-11T07:08:29;101513.94;;;7.16;77.16
52855;BME280;38719;51.418;7.286;2023-02-11T07:10:57;101507.91;;;6.92;77.98
52855;BME280;38719;51.418;7.286;2023-02-11T07:13:25;101517.47;;;7.18;77.50
52855;BME280;38719;51.418;7.286;2023-02-11T07:15:53;101518.31;;;7.25;77.21
52855;BME280;38719;51.418;7.286;2023-02-11T07:18:21;101517.53;;;7.06;77.31
52855;BME280;38719;51.418;7.286;2023-02-11T07:20:48;101512.22;;;7.12;77.32
52855;BME280;38719;51.418;7.286;2023-02-11T07:23:16;101507.00;;;6.95;78.06
52855;BME280;38719;51.418;7.286;2023-02-11T07:25:43;101510.50;;;7.00;77.95
52855;BME280;38719;51.418;7.286;2023-02-11T07:28:11;101519.31;;;7.02;77.52
52855;BME280;38719;51.418;7.286;2023-02-11T07:30:38;101518.44;;;7.03;78.18
52855;BME280;38719;51.418;7.286;2023-02-11T07:33:07;101523.75;;;7.00;78.10
52855;BME280;38719;51.418;7.286;2023-02-11T07:35:34;101526.38;;;7.03;78.79
52855;BME280;38719;51.418;7.286;2023-02-11T07:38:02;101528.06;;;7.20;77.77
52855;BME280;38719;51.418;7.286;2023-02-11T07:40:30;101522.84;;;7.06;78.35
52855;BME280;38719;51.418;7.286;2023-02-11T07:42:59;101534.28;;;7.16;77.59
52855;BME280;38719;51.418;7.286;2023-02-11T07:45:26;101534.19;;;7.28;77.54
52855;BME280;38719;51.418;7.286;2023-02-11T07:47:54;101536.06;;;7.10;77.84
52855;BME280;38719;51.418;7.286;2023-02-11T07:50:23;101528.28;;;6.75;79.56
52855;BME280;38719;51.418;7.286;2023-02-11T07:52:50;101525.56;;;6.89;79.96
52855;BME280;38719;51.418;7.286;2023-02-11T07:55:18;101521.22;;;6.75;79.77
52855;BME280;38719;51.418;7.286;2023-02-11T07:57:45;101530.91;;;6.86;79.95
52855;BME280;38719;51.418;7.286;2023-02-11T08:00:14;101517.66;;;6.86;79.64
52855;BME280;38719;51.418;7.286;2023-02-11T08:02:46;101519.44;;;6.81;79.98
52855;BME280;38719;51.418;7.286;2023-02-11T08:05:13;101523.94;;;6.60;80.96
52855;BME280;38719;51.418;7.286;2023-02-11T08:07:42;101530.06;;;6.70;81.11
52855;BME280;38719;51.418;7.286;2023-02-11T08:10:10;101529.97;;;6.94;79.93
52855;BME280;38719;51.418;7.286;2023-02-11T08:12:37;101537.94;;;6.90;80.25
52855;BME280;38719;51.418;7.286;2023-02-11T08:15:05;101545.03;;;6.85;80.39
52855;BME280;38719;51.418;7.286;2023-02-11T08:17:34;101530.91;;;6.86;80.76
52855;BME280;38719;51.418;7.286;2023-02-11T08:20:02;101541.38;;;7.06;79.06
52855;BME280;38719;51.418;7.286;2023-02-11T08:22:30;101534.31;;;7.05;79.40
52855;BME280;38719;51.418;7.286;2023-02-11T08:24:59;101542.31;;;7.02;80.05
52855;BME280;38719;51.418;7.286;2023-02-11T08:27:27;101554.72;;;6.87;79.83
52855;BME280;38719;51.418;7.286;2023-02-11T08:29:54;101556.41;;;7.02;79.70
52855;BME280;38719;51.418;7.286;2023-02-11T08:32:22;101561.75;;;6.99;79.81
52855;BME280;38719;51.418;7.286;2023-02-11T08:34:50;101558.19;;;7.00;80.08
52855;BME280;38719;51.418;7.286;2023-02-11T08:37:19;101561.66;;;7.13;79.47
52855;BME280;38719;51.418;7.286;2023-02-11T08:39:47;101569.69;;;6.99;79.85
52855;BME280;38719;51.418;7.286;2023-02-11T08:42:16;101573.13;;;7.18;79.46
52855;BME280;38719;51.418;7.286;2023-02-11T08:44:44;101565.16;;;7.15;79.27
52855;BME280;38719;51.418;7.286;2023-02-11T08:47:11;101566.94;;;7.16;78.84
52855;BME280;38719;51.418;7.286;2023-02-11T08:49:39;101565.13;;;7.21;80.02
52855;BME280;38719;51.418;7.286;2023-02-11T08:52:07;101565.97;;;7.34;78.64
52855;BME280;38719;51.418;7.286;2023-02-11T08:54:35;101569.44;;;7.44;78.21
52855;BME280;38719;51.418;7.286;2023-02-11T08:57:03;101574.72;;;7.46;77.65
52855;BME280;38719;51.418;7.286;2023-02-11T08:59:32;101577.41;;;7.39;79.01
52855;BME280;38719;51.418;7.286;2023-02-11T09:02:00;101573.00;;;7.38;78.33
52855;BME280;38719;51.418;7.286;2023-02-11T09:04:27;101579.13;;;7.47;78.77
52855;BME280;38719;51.418;7.286;2023-02-11T09:06:55;101579.25;;;7.23;78.87
52855;BME280;38719;51.418;7.286;2023-02-11T09:09:23;101587.34;;;6.94;80.38
52855;BME280;38719;51.418;7.286;2023-02-11T09:11:50;101590.75;;;7.21;79.59
52855;BME280;38719;51.418;7.286;2023-02-11T09:14:23;101593.41;;;7.25;79.93
52855;BME280;38719;51.418;7.286;2023-02-11T09:16:52;101595.13;;;7.30;79.65
52855;BME280;38719;51.418;7.286;2023-02-11T09:19:20;101597.72;;;7.37;79.30
52855;BME280;38719;51.418;7.286;2023-02-11T09:21:48;101602.94;;;7.54;78.43
52855;BME280;38719;51.418;7.286;2023-02-11T09:24:16;101608.19;;;7.65;77.48
52855;BME280;38719;51.418;7.286;2023-02-11T09:26:43;101606.34;;;7.80;77.59
52855;BME280;38719;51.418;7.286;2023-02-11T09:29:11;101598.50;;;7.63;78.24
52855;BME280;38719;51.418;7.286;2023-02-11T09:31:38;101604.66;;;7.63;78.19
52855;BME280;38719;51.418;7.286;2023-02-11T09:34:09;101602.03;;;7.58;78.10
52855;BME280;38719;51.418;7.286;2023-02-11T09:36:38;101602.03;;;7.58;79.10
52855;BME280;38719;51.418;7.286;2023-02-11T09:39:09;101609.97;;;7.63;77.85
52855;BME280;38719;51.418;7.286;2023-02-11T09:41:55;101617.88;;;7.72;78.71
52855;BME280;38719;51.418;7.286;2023-02-11T09:44:27;101609.13;;;7.56;78.90
52855;BME280;38719;51.418;7.286;2023-02-11T09:46:58;101619.78;;;7.50;78.37
52855;BME280;38719;51.418;7.286;2023-02-11T09:49:33;101629.44;;;7.56;78.90
52855;BME280;38719;51.418;7.286;2023-02-11T09:52:05;101619.69;;;7.67;78.35
52855;BME280;38719;51.418;7.286;2023-02-11T09:54:36;101625.03;;;7.58;78.18
52855;BME280;38719;51.418;7.286;2023-02-11T09:57:07;101631.16;;;7.66;78.74
52855;BME280;38719;51.418;7.286;2023-02-11T09:59:53;101632.00;;;7.73;78.46
52855;BME280;38719;51.418;7.286;2023-02-11T10:02:23;101633.81;;;7.66;79.05
52855;BME280;38719;51.418;7.286;2023-02-11T10:05:12;101634.59;;;7.81;77.48
52855;BME280;38719;51.418;7.286;2023-02-11T10:07:49;101639.94;;;7.78;78.08
52855;BME280;38719;51.418;7.286;2023-02-11T10:10:33;101635.50;;;7.80;78.45
52855;BME280;38719;51.418;7.286;2023-02-11T10:13:32;101635.41;;;7.90;77.55
52855;BME280;38719;51.418;7.286;2023-02-11T10:16:12;101634.44;;;8.04;77.25
52855;BME280;38719;51.418;7.286;2023-02-11T10:18:58;101637.03;;;8.13;76.81
52855;BME280;38719;51.418;7.286;2023-02-11T10:21:37;101638.84;;;8.08;76.36
52855;BME280;38719;51.418;7.286;2023-02-11T10:24:10;101643.38;;;7.92;77.32
52855;BME280;38719;51.418;7.286;2023-02-11T10:26:39;101649.50;;;7.99;77.17
52855;BME280;38719;51.418;7.286;2023-02-11T10:29:15;101650.47;;;7.85;77.78
52855;BME280;38719;51.418;7.286;2023-02-11T10:31:45;101649.56;;;7.91;77.33
52855;BME280;38719;51.418;7.286;2023-02-11T10:34:14;101651.38;;;7.86;77.56
52855;BME280;38719;51.418;7.286;2023-02-11T10:36:44;101647.75;;;7.96;77.95
52855;BME280;38719;51.418;7.286;2023-02-11T10:39:13;101647.81;;;7.85;77.88
52855;BME280;38719;51.418;7.286;2023-02-11T10:41:44;101640.59;;;8.07;77.16
52855;BME280;38719;51.418;7.286;2023-02-11T10:44:23;101658.16;;;8.24;76.86
52855;BME280;38719;51.418;7.286;2023-02-11T10:46:52;101652.03;;;8.17;77.31
52855;BME280;38719;51.418;7.286;2023-02-11T10:49:36;101652.03;;;8.16;77.00
52855;BME280;38719;51.418;7.286;2023-02-11T10:52:14;101660.00;;;8.17;76.89
52855;BME280;38719;51.418;7.286;2023-02-11T10:54:54;101657.22;;;8.31;76.74
52855;BME280;38719;51.418;7.286;2023-02-11T10:57:26;101654.56;;;8.34;76.47
52855;BME280;38719;51.418;7.286;2023-02-11T10:59:57;101654.50;;;8.37;76.94
52855;BME280;38719;51.418;7.286;2023-02-11T11:02:28;101649.16;;;8.42;76.54
52855;BME280;38719;51.418;7.286;2023-02-11T11:05:00;101652.88;;;8.22;76.31
52855;BME280;38719;51.418;7.286;2023-02-11T11:07:32;101658.97;;;8.35;76.21
52855;BME280;38719;51.418;7.286;2023-02-11T11:10:02;101663.34;;;8.39;76.60
52855;BME280;38719;51.418;7.286;2023-02-11T11:12:36;101666.91;;;8.37;76.13
52855;BME280;38719;51.418;7.286;2023-02-11T11:15:16;101674.09;;;8.22;76.44
52855;BME280;38719;51.418;7.286;2023-02-11T11:17:44;101673.31;;;8.10;77.37
52855;BME280;38719;51.418;7.286;2023-02-11T11:20:20;101676.69;;;8.30;77.09
52855;BME280;38719;51.418;7.286;2023-02-11T11:22:51;101680.19;;;8.37;76.36
52855;BME280;38719;51.418;7.286;2023-02-11T11:25:23;101681.13;;;8.30;77.12
52855;BME280;38719;51.418;7.286;2023-02-11T11:27:53;101681.97;;;8.33;76.63
52855;BME280;38719;51.418;7.286;2023-02-11T11:30:24;101676.81;;;8.15;77.50
52855;BME280;38719;51.418;7.286;2023-02-11T11:32:53;101675.13;;;8.03;77.81
52855;BME280;38719;51.418;7.286;2023-02-11T11:35:24;101669.72;;;8.15;77.65
52855;BME280;38719;51.418;7.286;2023-02-11T11:37:56;101672.38;;;8.15;77.54
52855;BME280;38719;51.418;7.286;2023-02-11T11:40:29;101674.03;;;8.29;77.72
52855;BME280;38719;51.418;7.286;2023-02-11T11:43:06;101676.78;;;8.18;78.03
52855;BME280;38719;51.418;7.286;2023-02-11T11:45:52;101668.75;;;8.27;77.51
52855;BME280;38719;51.418;7.286;2023-02-11T11:48:21;101667.94;;;8.20;77.41
52855;BME280;38719;51.418;7.286;2023-02-11T11:50:52;101675.03;;;8.17;77.76
52855;BME280;38719;51.418;7.286;2023-02-11T11:53:28;101665.22;;;8.25;77.63
52855;BME280;38719;51.418;7.286;2023-02-11T11:56:02;101660.91;;;8.15;78.26
52855;BME280;38719;51.418;7.286;2023-02-11T11:58:30;101665.22;;;8.28;78.24
52855;BME280;38719;51.418;7.286;2023-02-11T12:01:09;101669.75;;;8.17;78.20
52855;BME280;38719;51.418;7.286;2023-02-11T12:04:03;101670.41;;;8.41;77.37
52855;BME280;38719;51.418;7.286;2023-02-11T12:06:44;101665.09;;;8.45;77.31
52855;BME280;38719;51.418;7.286;2023-02-11T12:09:25;101649.13;;;8.51;76.35
52855;BME280;38719;51.418;7.286;2023-02-11T12:12:09;101653.56;;;8.45;76.68
52855;BME280;38719;51.418;7.286;2023-02-11T12:14:48;101652.69;;;8.47;76.59
52855;BME280;38719;51.418;7.286;2023-02-11T12:17:28;101641.19;;;8.47;77.33
52855;BME280;38719;51.418;7.286;2023-02-11T12:20:05;101640.28;;;8.45;77.36
52855;BME280;38719;51.418;7.286;2023-02-11T12:22:47;101642.94;;;8.49;76.60
52855;BME280;38719;51.418;7.286;2023-02-11T12:25:25;101643.09;;;8.29;77.53
52855;BME280;38719;51.418;7.286;2023-02-11T12:28:02;101638.44;;;8.56;76.65
52855;BME280;38719;51.418;7.286;2023-02-11T12:30:52;101638.44;;;8.59;76.83
52855;BME280;38719;51.418;7.286;2023-02-11T12:33:35;101643.78;;;8.54;77.07
52855;BME280;38719;51.418;7.286;2023-02-11T12:36:12;101637.50;;;8.63;76.39
52855;BME280;38719;51.418;7.286;2023-02-11T12:38:54;101639.38;;;8.52;76.26
52855;BME280;38719;51.418;7.286;2023-02-11T12:41:39;101632.19;;;8.62;76.95
52855;BME280;38719;51.418;7.286;2023-02-11T12:44:34;101627.69;;;8.70;76.12
52855;BME280;38719;51.418;7.286;2023-02-11T12:47:14;101627.75;;;8.62;75.98
52855;BME280;38719;51.418;7.286;2023-02-11T12:49:55;101638.31;;;8.71;76.35
52855;BME280;38719;51.418;7.286;2023-02-11T12:52:43;101653.50;;;8.55;76.49
52855;BME280;38719;51.418;7.286;2023-02-11T12:55:20;101651.69;;;8.59;77.01
52855;BME280;38719;51.418;7.286;2023-02-11T12:57:53;101650.94;;;8.43;76.81
52855;BME280;38719;51.418;7.286;2023-02-11T13:00:23;101650.88;;;8.54;77.61
52855;BME280;38719;51.418;7.286;2023-02-11T13:02:56;101647.28;;;8.55;76.67
52855;BME280;38719;51.418;7.286;2023-02-11T13:05:28;101643.84;;;8.42;77.40
52855;BME280;38719;51.418;7.286;2023-02-11T13:08:02;101634.06;;;8.49;77.00
52855;BME280;38719;51.418;7.286;2023-02-11T13:10:33;101635.75;;;8.61;77.10
52855;BME280;38719;51.418;7.286;2023-02-11T13:13:08;101636.59;;;8.61;77.33
52855;BME280;38719;51.418;7.286;2023-02-11T13:15:44;101640.22;;;8.55;76.78
52855;BME280;38719;51.418;7.286;2023-02-11T13:18:23;101636.56;;;8.67;76.71
52855;BME280;38719;51.418;7.286;2023-02-11T13:20:55;101642.66;;;8.79;76.46
52855;BME280;38719;51.418;7.286;2023-02-11T13:23:36;101633.06;;;8.65;76.58